Time;durP1;ratioP1;P1;durP2;ratioP2;P2;SDS_P1;SDS_P2;PMS_P1;PMS_P2;Temp;Humidity;BMP_temperature;BMP_pressure;BME280_temperature;BME280_humidity;BME280_pressure;Samples;Min_cycle;Max_cycle;Signal;HPM_P1;HPM_P2
2023/10/26 04:16:07;;;;;;;;;;;;;;;;;;5425137;22;19924;-77
2023/10/26 04:18:35;;;;;;;;;;;;;;;;;;5076502;28;19929;-76
2023/10/26 04:21:02;;;;;;;;;;;;;;;;;;5076058;28;20388;-76
2023/10/26 04:23:29;;;;;;;;;;;;;;;;;;5076564;28;19925;-76
2023/10/26 04:25:56;;;;;;;;;;;;;;;;;;5063606;28;20400;-75
2023/10/26 04:28:23;;;;;;;;;;;;;;;;;;5056444;28;19925;-75
2023/10/26 04:30:50;;;;;;;;;;;;;;;;;;5055727;28;20374;-75
2023/10/26 04:33:17;;;;;;;;;;;;;;;;;;5056291;28;19925;-75
2023/10/26 04:35:43;;;;;;;;;;;;;;;;;;5055784;28;20381;-75
2023/10/26 04:38:11;;;;;;;;;;;;;;;;;;5056050;28;19929;-76
2023/10/26 04:40:38;;;;;;;;;;;;;;;;;;5055524;28;20293;-76
2023/10/26 04:43:05;;;;;;;;;;;;;;;;;;5056231;28;19924;-76
2023/10/26 04:45:32;;;;;;;;;;;;;;;;;;5056251;28;20308;-76
2023/10/26 04:48:00;;;;;;;;;;;;;;;;;;5055788;28;19932;-75
2023/10/26 04:50:29;;;;;;;;;;;;;;;;;;5055702;28;19932;-76
2023/10/26 04:52:56;;;;;;;;;;;;;;;;;;5055802;28;19925;-75
2023/10/26 04:55:23;;;;;;;;;;;;;;;;;;5055585;28;20266;-75
2023/10/26 04:57:50;;;;;;;;;;;;;;;;;;5055888;28;19929;-75
2023/10/26 05:00:17;;;;;;;;;;;;;;;;;;5055582;28;19947;-76
2023/10/26 05:02:44;;;;;;;;;;;;;;;;;;5055471;28;19931;-74
2023/10/26 05:05:11;;;;;;;;;;;;;;;;;;5055253;28;19952;-74
2023/10/26 05:07:38;;;;;;;;;;;;;;;;;;5055358;28;19929;-75
2023/10/26 09:09:05;;;;;;;;;;;;;;;;;;5272261;22;19932;-79
2023/10/26 09:11:32;;;;;;;;;;;;;;;;;;5078410;28;19995;-78
2023/10/26 09:13:59;;;;;;;;;;;;;;;;;;5081206;28;19931;-78
2023/10/26 09:16:26;;;;;;;;;;;;;;;;;;5080631;28;20373;-78
2023/10/26 09:18:53;;;;;;;;;;;;;;;;;;5070304;28;19931;-78
2023/10/26 09:21:20;;;;;;;;;;;;;;;;;;5076332;28;19925;-79
2023/10/26 09:23:48;;;;;;;;;;;;;;;;;;5070851;28;19925;-77
2023/10/26 09:26:15;;;;;;;;;;;;;;;;;;5073332;28;19925;-79
2023/10/26 09:28:42;;;;;;;;;;;;;;;;;;5076943;28;19924;-79
2023/10/26 09:31:09;;;;;;;;;;;;;;;;;;5076758;28;19924;-79
2023/10/26 09:33:35;;;;;;;;;;;;;;;;;;5063727;28;19925;-78
2023/10/26 09:36:03;;;;;;;;;;;;;;;;;;5059432;28;19925;-78
2023/10/26 09:38:30;;;;;;;;;;;;;;;;;;5060032;28;19925;-77
2023/10/26 09:40:57;;;;;;;;;;;;;;;;;;5066072;28;19950;-78
2023/10/26 09:43:24;;;;;;;;;;;;;;;;;;5065953;28;19925;-78
2023/10/26 09:45:51;;;;;;;;;;;;;;;;;;5065918;28;19924;-78
2023/10/26 09:48:18;;;;;;;;;;;;;;;;;;5060381;28;19939;-79
2023/10/26 09:50:45;;;;;;;;;;;;;;;;;;5060089;28;20406;-80
2023/10/26 09:53:12;;;;;;;;;;;;;;;;;;5061396;28;19924;-79
2023/10/26 09:55:39;;;;;;;;;;;;;;;;;;5060962;28;19925;-80
2023/10/26 09:58:06;;;;;;;;;;;;;;;;;;5060189;28;20386;-80
2023/10/26 10:00:33;;;;;;;;;;;;;;;;;;5063325;28;19967;-78
2023/10/26 10:03:00;;;;;;;;;;;;;;;;;;5066561;28;19925;-78
2023/10/26 10:05:27;;;;;;;;;;;;;;;;;;5064865;28;19925;-79
2023/10/26 10:07:53;;;;;;;;;;;;;;;;;;5063032;28;19925;-80
2023/10/26 10:10:20;;;;;;;;;;;;;;;;;;5060077;28;19924;-80
2023/10/26 10:12:47;;;;;;;;;;;;;;;;;;5058657;28;19924;-80
2023/10/26 10:15:15;;;;;;;;;;;;;;;;;;5060142;28;19932;-80
2023/10/26 10:17:41;;;;;;;;;;;;;;;;;;5060496;28;19931;-79
2023/10/26 10:20:08;;;;;;;;;;;;;;;;;;5059574;28;19964;-80
2023/10/26 10:22:36;;;;;;;;;;;;;;;;;;5059112;28;19925;-80
2023/10/26 10:25:03;;;;;;;;;;;;;;;;;;5059284;28;19924;-81
2023/10/26 10:27:30;;;;;;;;;;;;;;;;;;5059604;28;20304;-80
2023/10/26 10:29:56;;;;;;;;;;;;;;;;;;5059130;28;19932;-80
2023/10/26 10:32:23;;;;;;;;;;;;;;;;;;5059747;28;19931;-80
2023/10/26 10:34:50;;;;;;;;;;;;;;;;;;5059693;28;19932;-80
2023/10/26 10:37:21;;;;;;;;;;;;;;;;;;5059435;28;19925;-79
2023/10/26 10:39:48;;;;;;;;;;;;;;;;;;5059399;28;19970;-80
2023/10/26 10:42:15;;;;;;;;;;;;;;;;;;5059117;28;19932;-79
2023/10/26 10:44:42;;;;;;;;;;;;;;;;;;5060025;28;19924;-80
2023/10/26 10:47:09;;;;;;;;;;;;;;;;;;5059048;28;20324;-79
2023/10/26 10:49:36;;;;;;;;;;;;;;;;;;5059704;28;19924;-80
2023/10/26 10:52:02;;;;;;;;;;;;;;;;;;5060284;28;19932;-80
2023/10/26 10:54:29;;;;;;;;;;;;;;;;;;5058787;28;19932;-79
2023/10/26 10:56:56;;;;;;;;;;;;;;;;;;5060319;28;19924;-79
2023/10/26 10:59:25;;;;;;;;;;;9.40;99.90;;;;;;5059705;28;19932;-80
2023/10/26 11:02:06;;;;;;;;;;;14.80;99.90;;;;;;5059255;28;19947;-79
2023/10/26 11:04:33;;;;;;;;;;;15.00;99.90;;;;;;5060227;28;19932;-81
2023/10/26 11:07:00;;;;;;;;;;;15.10;99.90;;;;;;5060443;28;19932;-80
2023/10/26 11:09:27;;;;;;;;;;;15.20;99.90;;;;;;5061059;28;19948;-79
2023/10/26 11:11:54;;;;;;;;;;;15.30;99.90;;;;;;5060486;28;19932;-80
2023/10/26 11:14:21;;;;;;;;;;;15.40;99.90;;;;;;5060589;28;19925;-80
2023/10/26 11:16:49;;;;;;;;;;;15.30;99.90;;;;;;5060931;28;19929;-79
2023/10/26 11:19:16;;;;;;;;;;;15.10;99.90;;;;;;5061476;28;19931;-81
2023/10/26 11:21:42;;;;;;;;;;;15.10;99.90;;;;;;5061340;28;19931;-81
2023/10/26 11:24:09;;;;;;;;;;;15.00;99.90;;;;;;5059190;28;19935;-79
2023/10/26 11:26:35;;;;;;;;;;;15.10;99.90;;;;;;5062669;28;19933;-80
2023/10/26 11:29:04;;;;;;;;;;;15.30;99.90;;;;;;5062594;28;19935;-80
2023/10/26 11:31:39;;;;;;;;;;;15.30;99.90;;;;;;5062308;28;19925;-80
2023/10/26 11:34:07;;;;;;;;;;;15.50;99.90;;;;;;5061754;28;20400;-80
2023/10/26 11:36:34;;;;;;;;;;;15.60;99.90;;;;;;5061749;28;19986;-80
2023/10/26 11:39:00;;;;;;;;;;;15.70;99.90;;;;;;5061972;28;19932;-80
2023/10/26 11:41:28;;;;;;;;;;;15.70;99.90;;;;;;5061825;28;19924;-79
2023/10/26 11:43:54;;;;;;;;;;;15.70;99.90;;;;;;5061739;28;19925;-80
2023/10/26 11:46:34;;;;;;;;;;;15.70;99.90;;;;;;5062030;28;19931;-79
2023/10/26 11:49:01;;;;;;;;;;;15.80;99.90;;;;;;5061773;28;19925;-80
2023/10/26 11:51:29;;;;;;;;;;;15.80;99.90;;;;;;5062048;28;19925;-80
2023/10/26 11:53:56;;;;;;;;;;;15.80;99.90;;;;;;5062264;28;19947;-79
2023/10/26 11:56:23;;;;;;;;;;;15.90;99.90;;;;;;5061837;28;19925;-80
2023/10/26 11:58:50;;;;;;;;;;;16.00;99.90;;;;;;5063143;28;19976;-80
2023/10/26 12:01:16;;;;;;;;;;;16.10;99.90;;;;;;5062767;28;19925;-79
2023/10/26 12:03:43;;;;;;;;;;;16.00;99.90;;;;;;5062124;28;19947;-79
2023/10/26 12:06:11;;;;;;;;;;;15.90;99.90;;;;;;5062560;28;19932;-80
2023/10/26 12:08:39;;;;;;;;;;;15.80;99.90;;;;;;5061302;28;19925;-79
2023/10/26 12:11:05;;;;;;;;;;;15.70;99.90;;;;;;5061136;28;19931;-79
2023/10/26 12:13:32;;;;;;;;;;;15.60;99.90;;;;;;5061369;28;19925;-80
2023/10/26 12:15:59;;;;;;;;;;;15.40;99.90;;;;;;5061065;28;20378;-79
2023/10/26 12:18:26;;;;;;;;;;;15.40;99.90;;;;;;5061213;28;20267;-80
2023/10/26 12:20:53;;;;;;;;;;;15.30;99.90;;;;;;5067984;28;20286;-79
2023/10/26 12:23:20;;;;;;;;;;;15.20;99.90;;;;;;5062222;28;19929;-79
2023/10/26 12:25:47;;;;;;;;;;;15.20;99.90;;;;;;5060759;28;19932;-79
2023/10/26 12:28:15;;;;;;;;;;;;;;;;;;5060429;28;19924;-78
2023/10/26 12:30:42;;;;;;;;;;;15.20;99.90;;;;;;5058272;28;20309;-79
2023/10/26 12:33:09;;;;;;;;;;;15.20;99.90;;;;;;5059080;28;20362;-80
2023/10/26 12:35:35;;;;;;;;;;;15.20;99.90;;;;;;5058430;28;19932;-78
2023/10/26 12:38:02;;;;;;;;;;;15.30;99.90;;;;;;5060243;28;19925;-78
2023/10/26 12:40:28;;;;;;;;;;;15.30;99.90;;;;;;5058530;28;19924;-79
2023/10/26 12:42:57;;;;;;;;;;;15.40;99.90;;;;;;5058263;28;19948;-79
2023/10/26 12:45:24;;;;;;;;;;;15.40;99.90;;;;;;5058744;28;20397;-79
2023/10/26 12:47:51;;;;;;;;;;;15.50;99.90;;;;;;5059021;28;19925;-78
2023/10/26 12:50:18;;;;;;;;;;;15.50;99.90;;;;;;5058339;28;19974;-78
2023/10/26 12:52:44;;;;;;;;;;;15.60;99.90;;;;;;5058790;28;20476;-79
2023/10/26 12:55:11;;;;;;;;;;;15.60;99.90;;;;;;5058391;28;20381;-79
2023/10/26 12:57:37;;;;;;;;;;;15.60;99.90;;;;;;5058043;28;20429;-79
2023/10/26 13:00:07;;;;;;;;;;;15.70;99.90;;;;;;5058278;28;19940;-79
2023/10/26 13:02:36;;;;;;;;;;;15.80;99.90;;;;;;5058791;28;19931;-78
2023/10/26 13:05:02;;;;;;;;;;;15.80;99.90;;;;;;5058715;28;19948;-79
2023/10/26 13:07:31;;;;;;;;;;;15.80;99.90;;;;;;5059596;28;19925;-78
2023/10/26 13:09:57;;;;;;;;;;;15.80;99.90;;;;;;5058383;28;19963;-78
2023/10/26 13:12:24;;;;;;;;;;;15.60;99.90;;;;;;5059421;28;19924;-79
2023/10/26 13:14:50;;;;;;;;;;;15.50;99.90;;;;;;5060132;28;20301;-78
2023/10/26 13:17:18;;;;;;;;;;;15.40;99.90;;;;;;5067758;28;19925;-77
2023/10/26 13:19:45;;;;;;;;;;;15.30;99.90;;;;;;5066902;28;19932;-79
2023/10/26 13:22:11;;;;;;;;;;;15.20;99.90;;;;;;5067128;28;19925;-78
2023/10/26 13:24:38;;;;;;;;;;;15.20;99.90;;;;;;5065471;28;19924;-78
2023/10/26 13:27:05;;;;;;;;;;;15.30;99.90;;;;;;5057945;28;19932;-78
2023/10/26 13:29:31;;;;;;;;;;;15.30;99.90;;;;;;5058208;28;19932;-78
2023/10/26 13:31:58;;;;;;;;;;;15.30;99.90;;;;;;5058060;28;20374;-78
2023/10/26 13:34:26;;;;;;;;;;;15.40;99.90;;;;;;5058902;28;19932;-78
2023/10/26 13:36:52;;;;;;;;;;;15.40;99.90;;;;;;5059409;28;19932;-79
2023/10/26 13:39:21;;;;;;;;;;;15.50;99.90;;;;;;5060670;28;19924;-78
2023/10/26 13:41:47;;;;;;;;;;;15.50;99.90;;;;;;5059660;28;19948;-77
2023/10/26 13:44:14;;;;;;;;;;;15.50;99.90;;;;;;5055263;28;19925;-77
2023/10/26 13:46:41;;;;;;;;;;;15.50;99.90;;;;;;5054812;28;19928;-77
2023/10/26 13:49:09;;;;;;;;;;;15.60;99.90;;;;;;5064465;28;19925;-76
2023/10/26 13:51:37;;;;;;;;;;;15.70;99.90;;;;;;5064737;28;19931;-76
2023/10/26 13:54:03;;;;;;;;;;;15.60;99.90;;;;;;5061901;28;19924;-76
2023/10/26 13:56:30;;;;;;;;;;;15.60;99.90;;;;;;5054828;28;20100;-76
2023/10/26 13:58:57;;;;;;;;;;;;;;;;;;5054658;28;19925;-76
2023/10/26 14:01:24;;;;;;;;;;;;;;;;;;5054460;28;19925;-76
2023/10/26 14:03:51;;;;;;;;;;;;;;;;;;5054130;28;20430;-76
2023/10/26 14:06:18;;;;;;;;;;;;;;;;;;5054497;28;19925;-76
2023/10/26 14:08:45;;;;;;;;;;;;;;;;;;5054131;28;20378;-76
2023/10/26 14:11:12;;;;;;;;;;;;;;;;;;5054097;28;19925;-76
2023/10/26 14:13:40;;;;;;;;;;;;;;;;;;5054431;28;19925;-76
2023/10/26 14:16:08;;;;;;;;;;;;;;;;;;5054416;28;19925;-76
2023/10/26 14:18:35;;;;;;;;;;;;;;;;;;5054161;28;19925;-75
2023/10/26 14:21:03;;;;;;;;;;;;;;;;;;5054146;28;19925;-75
2023/10/26 14:23:30;;;;;;;;;;;;;;;;;;5053959;28;20341;-75
2023/10/26 14:25:58;;;;;;;;;;;15.50;99.90;;;;;;5054322;28;19932;-75
2023/10/26 14:28:24;;;;;;;;;;;14.60;99.90;;;;;;5053932;28;19925;-75
2023/10/26 14:30:51;;;;;;;;;;;14.60;99.90;;;;;;5053865;28;19929;-75
2023/10/26 14:33:18;;;;;;;;;;;14.50;99.90;;;;;;5053885;28;19925;-76
2023/10/26 14:35:49;;;;;;;;;;;14.50;99.90;;;;;;5053857;28;19925;-76
2023/10/26 14:38:16;;;;;;;;;;;14.40;99.90;;;;;;5053864;28;19932;-75
2023/10/26 14:40:45;;;;;;;;;;;14.40;99.90;;;;;;5053479;28;19925;-75
2023/10/26 14:43:11;;;;;;;;;;;;;;;;;;5053765;28;19935;-75
2023/10/26 14:45:38;;;;;;;;;;;;;;;;;;5053785;28;19924;-76
2023/10/26 14:48:07;;;;;;;;;;;14.30;99.90;;;;;;5053701;28;19956;-76
2023/10/26 14:50:33;;;;;;;;;;;14.10;99.90;;;;;;5053683;28;19947;-76
2023/10/26 14:53:00;;;;;;;;;;;14.10;99.90;;;;;;5053633;28;19924;-76
2023/10/26 14:55:26;;;;;;;;;;;14.00;99.90;;;;;;5053753;28;20340;-76
2023/10/26 14:57:53;;;;;;;;;;;14.00;99.90;;;;;;5053749;28;19932;-76
2023/10/26 15:00:19;;;;;;;;;;;14.00;99.90;;;;;;5057915;28;19925;-76
2023/10/26 15:02:46;;;;;;;;;;;13.90;99.90;;;;;;5057844;28;20396;-76
2023/10/26 15:05:14;;;;;;;;;;;13.90;99.90;;;;;;5057513;28;20394;-76
2023/10/26 15:07:41;;;;;;;;;;;13.80;99.90;;;;;;5057768;28;19925;-77
2023/10/26 15:10:08;;;;;;;;;;;13.80;99.90;;;;;;5057392;28;20436;-76
2023/10/26 15:12:34;;;;;;;;;;;13.70;99.90;;;;;;5057571;28;19929;-77
2023/10/26 15:15:01;;;;;;;;;;;13.60;99.90;;;;;;5057554;28;19952;-77
2023/10/26 15:17:28;;;;;;;;;;;13.60;99.90;;;;;;5057627;28;19931;-76
2023/10/26 15:19:54;;;;;;;;;;;13.50;99.90;;;;;;5057641;28;19925;-76
2023/10/26 15:22:22;;;;;;;;;;;13.40;99.90;;;;;;5057681;28;19925;-76
2023/10/26 15:24:49;;;;;;;;;;;13.40;99.90;;;;;;5057457;28;19925;-76
2023/10/26 15:27:15;;;;;;;;;;;13.30;99.90;;;;;;5057355;28;19932;-76
2023/10/26 15:29:44;;;;;;;;;;;13.20;99.90;;;;;;5057150;28;19975;-75
2023/10/26 15:32:11;;;;;;;;;;;13.20;99.90;;;;;;5057294;28;20378;-77
2023/10/26 15:34:38;;;;;;;;;;;13.10;99.90;;;;;;5057153;28;19924;-76
2023/10/26 15:37:04;;;;;;;;;;;13.10;99.90;;;;;;5057286;28;19924;-76
2023/10/26 15:39:33;;;;;;;;;;;13.10;99.90;;;;;;5056998;28;19925;-75
2023/10/26 15:41:59;;;;;;;;;;;13.00;99.90;;;;;;5057317;28;19932;-76
2023/10/26 15:44:26;;;;;;;;;;;13.00;99.90;;;;;;5057014;28;19925;-77
2023/10/26 15:46:52;;;;;;;;;;;12.90;99.90;;;;;;5056880;28;19925;-75
2023/10/26 15:49:19;;;;;;;;;;;12.90;99.90;;;;;;5056899;28;19924;-75
2023/10/26 15:51:46;;;;;;;;;;;12.90;99.90;;;;;;5056850;28;19933;-75
2023/10/26 15:54:13;;;;;;;;;;;12.80;99.90;;;;;;5056854;28;19978;-74
2023/10/26 15:56:41;;;;;;;;;;;12.80;99.90;;;;;;5056412;28;20314;-75
2023/10/26 15:59:07;;;;;;;;;;;12.70;99.90;;;;;;5056736;28;19925;-76
2023/10/26 16:01:34;;;;;;;;;;;12.70;99.90;;;;;;5056372;28;20306;-76
2023/10/26 16:04:01;;;;;;;;;;;12.60;99.90;;;;;;5056821;28;19947;-76
2023/10/26 16:06:27;;;;;;;;;;;12.50;99.90;;;;;;5056713;28;19925;-76
2023/10/26 16:08:54;;;;;;;;;;;;;;;;;;5056480;28;19932;-76
2023/10/26 16:11:21;;;;;;;;;;;;;;;;;;5055577;28;20326;-77
2023/10/26 16:13:48;;;;;;;;;;;;;;;;;;5056818;28;19925;-77
2023/10/26 16:16:15;;;;;;;;;;;;;;;;;;5056818;28;19932;-77
2023/10/26 16:18:45;;;;;;;;;;;;;;;;;;5056569;28;19928;-77
2023/10/26 16:21:12;;;;;;;;;;;;;;;;;;5057472;28;19932;-76
2023/10/26 16:23:40;;;;;;;;;;;;;;;;;;5056524;28;19932;-78
2023/10/26 16:26:07;;;;;;;;;;;;;;;;;;5056406;28;20275;-77
2023/10/26 16:28:34;;;;;;;;;;;;;;;;;;5056655;28;19925;-78
2023/10/26 16:31:02;;;;;;;;;;;;;;;;;;5057660;28;20406;-78
2023/10/26 16:33:29;;;;;;;;;;;;;;;;;;5059491;28;20401;-78
2023/10/26 16:35:56;;;;;;;;;;;;;;;;;;5058397;28;19931;-78
2023/10/26 16:38:22;;;;;;;;;;;;;;;;;;5058683;28;19983;-77
2023/10/26 16:40:49;;;;;;;;;;;;;;;;;;5058683;28;19931;-78
2023/10/26 16:43:17;;;;;;;;;;;;;;;;;;5058391;28;19932;-78
2023/10/26 16:45:44;;;;;;;;;;;;;;;;;;5057564;28;19995;-78
2023/10/26 16:48:11;;;;;;;;;;;;;;;;;;5059366;28;20010;-79
2023/10/26 16:50:38;;;;;;;;;;;;;;;;;;5060391;28;19924;-78
2023/10/26 16:53:05;;;;;;;;;;;;;;;;;;5061766;28;19924;-79
2023/10/26 16:55:32;;;;;;;;;;;;;;;;;;5063186;28;19928;-79
2023/10/26 16:57:59;;;;;;;;;;;;;;;;;;5065473;28;19925;-80
2023/10/26 17:00:25;;;;;;;;;;;;;;;;;;5065545;28;20382;-80
2023/10/26 17:02:53;;;;;;;;;;;;;;;;;;5065363;28;19935;-80
2023/10/26 17:05:19;;;;;;;;;;;;;;;;;;5064923;28;19931;-81
2023/10/26 17:07:46;;;;;;;;;;;;;;;;;;5064138;28;19925;-80
2023/10/26 17:10:13;;;;;;;;;;;;;;;;;;5064414;28;20003;-80
2023/10/26 17:12:42;;;;;;;;;;;;;;;;;;5063273;28;19924;-79
2023/10/26 17:15:09;;;;;;;;;;;;;;;;;;5064301;28;20012;-80
2023/10/26 17:17:45;;;;;;;;;;;;;;;;;;5065471;28;20394;-81
2023/10/26 17:20:12;;;;;;;;;;;;;;;;;;5065925;28;19935;-80
2023/10/26 17:22:39;;;;;;;;;;;;;;;;;;5069602;28;19960;-81
2023/10/26 17:25:16;;;;;;;;;;;;;;;;;;5070059;28;19925;-78
2023/10/26 17:27:43;;;;;;;;;;;;;;;;;;5075536;28;19931;-79
2023/10/26 17:30:10;;;;;;;;;;;;;;;;;;5073402;28;19931;-79
2023/10/26 17:32:38;;;;;;;;;;;;;;;;;;5071922;28;20382;-80
2023/10/26 17:35:05;;;;;;;;;;;;;;;;;;5073930;28;19986;-80
2023/10/26 17:37:32;;;;;;;;;;;;;;;;;;5071467;28;19925;-79
2023/10/26 17:39:58;;;;;;;;;;;;;;;;;;5067168;28;20378;-79
2023/10/26 17:42:25;;;;;;;;;;;;;;;;;;5063912;28;19924;-80
2023/10/26 17:44:53;;;;;;;;;;;;;;;;;;5063648;28;19935;-81
2023/10/26 17:47:21;;;;;;;;;;;;;;;;;;5061309;28;19925;-79
2023/10/26 17:49:48;;;;;;;;;;;;;;;;;;5061335;28;19947;-79
2023/10/26 17:52:15;;;;;;;;;;;;;;;;;;5062982;28;19924;-76
2023/10/26 17:54:45;;;;;;;;;;;;;;;;;;5062224;28;20404;-78
2023/10/26 17:57:12;;;;;;;;;;;;;;;;;;5063555;28;19929;-78
2023/10/26 17:59:42;;;;;;;;;;;;;;;;;;5063585;28;20369;-81
2023/10/26 18:02:09;;;;;;;;;;;;;;;;;;5065465;28;19924;-81
2023/10/26 18:04:36;;;;;;;;;;;;;;;;;;5065094;28;19996;-82
2023/10/26 18:07:03;;;;;;;;;;;;;;;;;;5062899;28;19929;-80
2023/10/26 18:09:30;;;;;;;;;;;;;;;;;;5062391;28;19932;-79
2023/10/26 18:11:57;;;;;;;;;;;;;;;;;;5064246;28;19925;-79
2023/10/26 18:14:25;;;;;;;;;;;;;;;;;;5063495;28;20263;-81
2023/10/26 18:16:52;;;;;;;;;;;;;;;;;;5063421;28;19928;-80
2023/10/26 18:19:19;;;;;;;;;;;;;;;;;;5061393;28;20034;-79
2023/10/26 18:21:46;;;;;;;;;;;;;;;;;;5062416;28;19932;-81
2023/10/26 18:24:14;;;;;;;;;;;;;;;;;;5061082;28;20008;-79
2023/10/26 18:26:41;;;;;;;;;;;;;;;;;;5062081;28;19932;-80
2023/10/26 18:29:08;;;;;;;;;;;;;;;;;;5062277;28;19925;-80
2023/10/26 18:31:37;;;;;;;;;;;;;;;;;;5061197;28;19980;-81
2023/10/26 18:34:04;;;;;;;;;;;;;;;;;;5062343;28;20432;-79
2023/10/26 18:36:34;;;;;;;;;;;;;;;;;;5061952;28;19992;-81
2023/10/26 18:39:01;;;;;;;;;;;;;;;;;;5061149;28;19931;-80
2023/10/26 18:41:28;;;;;;;;;;;;;;;;;;5062528;28;19932;-79
2023/10/26 18:43:55;;;;;;;;;;;;;;;;;;5064844;28;19932;-80
2023/10/26 18:46:23;;;;;;;;;;;;;;;;;;5065142;28;19925;-80
2023/10/26 18:48:50;;;;;;;;;;;;;;;;;;5063931;28;19925;-79
2023/10/26 18:51:18;;;;;;;;;;;;;;;;;;5063802;28;19994;-79
2023/10/26 18:53:47;;;;;;;;;;;;;;;;;;5067482;28;19926;-79
2023/10/26 18:56:14;;;;;;;;;;;;;;;;;;5065230;28;20420;-79
2023/10/26 18:58:41;;;;;;;;;;;;;;;;;;5065085;28;20385;-78
2023/10/26 19:01:08;;;;;;;;;;;;;;;;;;5065974;28;20319;-78
2023/10/26 19:03:35;;;;;;;;;;;;;;;;;;5068019;28;19931;-79
2023/10/26 19:06:02;;;;;;;;;;;;;;;;;;5074841;28;19984;-79
2023/10/26 19:08:29;;;;;;;;;;;;;;;;;;5074290;28;19925;-79
2023/10/26 19:10:56;;;;;;;;;;;;;;;;;;5074001;28;20015;-80
2023/10/26 19:13:23;;;;;;;;;;;;;;;;;;5071236;28;19936;-79
2023/10/26 19:15:50;;;;;;;;;;;;;;;;;;5061788;28;19952;-78
2023/10/26 19:18:18;;;;;;;;;;;;;;;;;;5059112;28;19963;-80
2023/10/26 19:20:45;;;;;;;;;;;;;;;;;;5064903;28;19931;-80
2023/10/26 19:23:13;;;;;;;;;;;;;;;;;;5065102;28;19980;-79
2023/10/26 19:25:49;;;;;;;;;;;;;;;;;;5066695;28;19925;-79
2023/10/26 19:28:16;;;;;;;;;;;;;;;;;;5073589;28;19924;-78
2023/10/26 19:30:44;;;;;;;;;;;;;;;;;;5071887;28;19963;-79
2023/10/26 19:33:11;;;;;;;;;;;;;;;;;;5067416;28;19932;-79
2023/10/26 19:35:39;;;;;;;;;;;;;;;;;;5061710;28;19925;-79
2023/10/26 19:38:07;;;;;;;;;;;;;;;;;;5061704;28;19925;-79
2023/10/26 19:40:34;;;;;;;;;;;;;;;;;;5061540;28;19932;-77
2023/10/26 19:43:01;;;;;;;;;;;;;;;;;;5061452;28;19925;-77
2023/10/26 19:45:28;;;;;;;;;;;;;;;;;;5060782;28;19928;-75
2023/10/26 19:47:57;;;;;;;;;;;;;;;;;;5062621;28;19964;-76
2023/10/26 19:50:24;;;;;;;;;;;;;;;;;;5064457;28;20008;-77
2023/10/26 19:52:51;;;;;;;;;;;;;;;;;;5062551;28;20019;-78
2023/10/26 19:55:18;;;;;;;;;;;;;;;;;;5088203;22;19928;-80
2023/10/26 19:57:45;;;;;;;;;;;;;;;;;;5084719;28;19951;-81
2023/10/26 20:00:15;;;;;;;;;;;;;;;;;;5084404;28;19929;-80
2023/10/26 20:02:42;;;;;;;;;;;;;;;;;;5083751;28;20337;-79
2023/10/26 20:05:11;;;;;;;;;;;;;;;;;;5079474;28;19931;-80
2023/10/26 20:07:38;;;;;;;;;;;;;;;;;;5064072;28;19925;-80
2023/10/26 20:10:05;;;;;;;;;;;;;;;;;;5064250;28;19928;-81
2023/10/26 20:12:32;;;;;;;;;;;;;;;;;;5064460;28;19932;-80
2023/10/26 20:14:59;;;;;;;;;;;;;;;;;;5064886;28;19928;-79
2023/10/26 20:17:26;;;;;;;;;;;;;;;;;;5074175;28;19925;-79
2023/10/26 20:19:53;;;;;;;;;;;;;;;;;;5073223;28;19932;-81
2023/10/26 20:22:19;;;;;;;;;;;;;;;;;;5060793;28;20366;-82
2023/10/26 20:24:47;;;;;;;;;;;;;;;;;;5057691;28;19925;-81
2023/10/26 20:27:14;;;;;;;;;;;;;;;;;;5057936;28;20357;-81
2023/10/26 20:29:41;;;;;;;;;;;;;;;;;;5058046;28;19925;-81
2023/10/26 20:32:08;;;;;;;;;;;;;;;;;;5057989;28;19931;-82
2023/10/26 20:34:36;;;;;;;;;;;;;;;;;;5057523;28;19936;-80
2023/10/26 20:37:04;;;;;;;;;;;;;;;;;;5057566;28;20024;-80
2023/10/26 20:39:31;;;;;;;;;;;;;;;;;;5058081;28;19932;-82
2023/10/26 20:41:57;;;;;;;;;;;;;;;;;;5059060;28;19924;-82
2023/10/26 20:44:24;;;;;;;;;;;;;;;;;;5057363;28;19940;-82
2023/10/26 20:46:51;;;;;;;;;;;;;;;;;;5057350;28;20039;-83
2023/10/26 20:49:18;;;;;;;;;;;;;;;;;;5057404;28;19932;-80
2023/10/26 20:51:45;;;;;;;;;;;;;;;;;;5057943;28;19952;-79
2023/10/26 20:54:12;;;;;;;;;;;;;;;;;;5057122;28;19936;-79
2023/10/26 20:56:39;;;;;;;;;;;;;;;;;;5056962;28;19931;-79
2023/10/26 20:59:06;;;;;;;;;;;;;;;;;;5057152;28;19932;-79
2023/10/26 21:01:33;;;;;;;;;;;;;;;;;;5058645;28;19960;-81
2023/10/26 21:04:00;;;;;;;;;;;;;;;;;;5059264;28;19925;-79
2023/10/26 21:06:27;;;;;;;;;;;;;;;;;;5057820;28;19925;-76
2023/10/26 21:08:55;;;;;;;;;;;;;;;;;;5057002;28;19932;-75
2023/10/26 21:11:22;;;;;;;;;;;;;;;;;;5056644;28;20354;-81
2023/10/26 21:13:49;;;;;;;;;;;;;;;;;;5059337;28;19975;-76
2023/10/26 21:16:16;;;;;;;;;;;;;;;;;;5056918;28;19925;-76
2023/10/26 21:18:43;;;;;;;;;;;;;;;;;;5056294;28;19932;-76
2023/10/26 21:21:10;;;;;;;;;;;;;;;;;;5056680;28;20286;-76
2023/10/26 21:23:37;;;;;;;;;;;;;;;;;;5056012;28;20344;-76
2023/10/26 21:26:04;;;;;;;;;;;;;;;;;;5055492;28;20302;-76
2023/10/26 21:28:32;;;;;;;;;;;;;;;;;;5056426;28;19925;-76
2023/10/26 21:30:58;;;;;;;;;;;;;;;;;;5057402;28;19970;-79
2023/10/26 21:33:25;;;;;;;;;;;;;;;;;;5060096;28;19951;-80
2023/10/26 21:35:52;;;;;;;;;;;;;;;;;;5060511;28;19988;-80
2023/10/26 21:38:19;;;;;;;;;;;;;;;;;;5060304;28;19925;-80
2023/10/26 21:40:47;;;;;;;;;;;;;;;;;;5059020;28;19932;-81
2023/10/26 21:43:14;;;;;;;;;;;;;;;;;;5058263;28;20336;-81
2023/10/26 21:45:43;;;;;;;;;;;;;;;;;;5060945;28;19974;-81
2023/10/26 21:48:10;;;;;;;;;;;;;;;;;;5058908;28;19925;-81
2023/10/26 21:50:37;;;;;;;;;;;;;;;;;;5058613;28;19931;-82
2023/10/26 21:53:04;;;;;;;;;;;;;;;;;;5058796;28;19924;-80
2023/10/26 21:55:31;;;;;;;;;;;;;;;;;;5058730;28;19925;-80
2023/10/26 21:57:58;;;;;;;;;;;;;;;;;;5060459;28;19925;-80
2023/10/26 22:00:27;;;;;;;;;;;;;;;;;;5065075;28;19935;-80
2023/10/26 22:02:55;;;;;;;;;;;;;;;;;;5066043;28;19964;-80
2023/10/26 22:05:22;;;;;;;;;;;;;;;;;;5065708;28;19947;-80
2023/10/26 22:07:49;;;;;;;;;;;;;;;;;;5065956;28;19931;-79
2023/10/26 22:10:17;;;;;;;;;;;;;;;;;;5058210;28;19932;-79
2023/10/26 22:12:44;;;;;;;;;;;;;;;;;;5057664;28;19947;-79
2023/10/26 22:15:12;;;;;;;;;;;;;;;;;;5057300;28;19932;-79
2023/10/26 22:17:39;;;;;;;;;;;;;;;;;;5057119;28;19978;-80
2023/10/26 22:20:08;;;;;;;;;;;;;;;;;;5056796;28;19924;-80
2023/10/26 22:22:35;;;;;;;;;;;;;;;;;;5056450;28;19932;-80
2023/10/26 22:25:02;;;;;;;;;;;;;;;;;;5057537;28;19932;-80
2023/10/26 22:27:28;;;;;;;;;;;;;;;;;;5057497;28;20283;-80
2023/10/26 22:29:55;;;;;;;;;;;;;;;;;;5057768;28;19933;-81
2023/10/26 22:32:22;;;;;;;;;;;;;;;;;;5058202;28;19924;-79
2023/10/26 22:34:49;;;;;;;;;;;;;;;;;;5057491;28;19932;-78
2023/10/26 22:37:16;;;;;;;;;;;;;;;;;;5058110;28;19929;-78
2023/10/26 22:39:43;;;;;;;;;;;;;;;;;;5058045;28;19932;-78
2023/10/26 22:42:10;;;;;;;;;;;;;;;;;;5058196;28;20286;-82
2023/10/26 22:44:37;;;;;;;;;;;;;;;;;;5058450;28;19952;-82
2023/10/26 22:47:04;;;;;;;;;;;;;;;;;;5058541;28;19967;-80
2023/10/26 22:49:31;;;;;;;;;;;;;;;;;;5055927;28;19925;-79
2023/10/26 22:51:58;;;;;;;;;;;;;;;;;;5058596;28;19932;-80
2023/10/26 22:54:25;;;;;;;;;;;;;;;;;;5073749;28;19931;-77
2023/10/26 22:56:52;;;;;;;;;;;;;;;;;;5074187;28;19913;-79
2023/10/26 22:59:20;;;;;;;;;;;;;;;;;;5071893;28;19932;-79
2023/10/26 23:01:47;;;;;;;;;;;;;;;;;;5054889;28;19983;-79
2023/10/26 23:04:14;;;;;;;;;;;;;;;;;;5056657;28;19932;-80
2023/10/26 23:06:41;;;;;;;;;;;;;;;;;;5055814;28;19948;-79
2023/10/26 23:09:11;;;;;;;;;;;;;;;;;;5055514;28;19933;-79
